Main page


Airports :

Gran Canaria, Spain

Gran Canaria Airport

latitude: 27-56N, longitude: 015-23W, elevation: 23 m

Current weather observation

The report was made 39 minutes ago, at 04:00 UTC
Wind 9 kt from the North/Northwest
Temperature 15°C
Humidity 59%
Pressure 1020 hPa
Visibility 10 km or more
Few clouds at a height of 4000 ft
Scattered clouds at a height of 5000 ft

METAR: GCLP 170400Z 33009KT 9999 FEW040 SCT050 15/07 Q1020 NOSIG

Time: 04:39 (04:39 UTC)


The report was made 2 hours and 39 minutes ago, at 02:00 UTC
Forecast valid from 17 at 03 UTC to 18 at 03 UTC
Wind 12 kt from the West/Northwest
Visibility 10 km or more
Scattered clouds at a height of 3500 ft
Probability 40% :
from 17 at 14 UTC to 17 at 23 UTC
Wind 12 kt from the North/Northeast with gusts up to 27 kt

TAF: GCLP 170200Z 1703/1803 30012KT 9999 SCT035 TX21/1714Z TN15/1706Z PROB40 TEMPO 1714/1723 03012G27KT

Weather observations and forecasts of more than 4000 airports (METAR and TAF reports).

The available stations are represented by yellow and red dots on the map.

Hover mouse over dot to see the name of the station.

Then click to see weather observations and forecasts.

To change the map : click on the green buttons with a black cross to zoom in, on the green button with a dash to zoom out, or on the green arrows for adjacent maps.